Time;durP1;ratioP1;P1;durP2;ratioP2;P2;SDS_P1;SDS_P2;PMS_P1;PMS_P2;Temp;Humidity;BMP_temperature;BMP_pressure;BME280_temperature;BME280_humidity;BME280_pressure;Samples;Min_cycle;Max_cycle;Signal;HPM_P1;HPM_P2
2022/01/10 00:01:41;;;;;;;4.05;2.65;;;16.70;55.00;;;;;;5050888;28;20183;-58
2022/01/10 00:04:07;;;;;;;3.03;2.38;;;16.70;55.00;;;;;;5052026;28;20182;-57
2022/01/10 00:06:32;;;;;;;4.25;2.40;;;16.70;55.00;;;;;;5051641;28;20167;-58
2022/01/10 00:08:58;;;;;;;4.50;3.22;;;16.60;54.90;;;;;;5051250;28;20187;-58
2022/01/10 00:11:23;;;;;;;3.17;2.70;;;16.60;55.00;;;;;;5051437;28;20167;-59
2022/01/10 00:13:51;;;;;;;2.97;2.67;;;16.60;55.00;;;;;;5051637;28;20238;-59
2022/01/10 00:16:17;;;;;;;3.88;3.05;;;16.60;55.60;;;;;;5051201;28;20182;-59
2022/01/10 00:18:42;;;;;;;4.03;2.70;;;16.60;55.00;;;;;;5051437;28;20179;-59
2022/01/10 00:21:08;;;;;;;5.00;2.97;;;16.60;55.00;;;;;;5051738;28;20175;-59
2022/01/10 00:23:34;;;;;;;3.88;2.92;;;16.60;54.90;;;;;;5050615;28;20522;-59
2022/01/10 00:26:00;;;;;;;3.60;2.78;;;16.50;54.90;;;;;;5051514;28;20181;-59
2022/01/10 00:28:26;;;;;;;3.38;2.50;;;16.50;54.90;;;;;;5051070;28;20566;-59
2022/01/10 00:30:51;;;;;;;3.83;2.45;;;16.50;54.90;;;;;;5050653;28;20581;-59
2022/01/10 00:33:17;;;;;;;3.55;2.72;;;16.50;54.90;;;;;;5051289;28;20218;-59
2022/01/10 00:35:42;;;;;;;3.60;2.40;;;16.50;55.00;;;;;;5050917;28;20932;-59
2022/01/10 00:38:08;;;;;;;3.92;2.58;;;16.50;54.90;;;;;;5050647;28;20182;-58
2022/01/10 00:40:33;;;;;;;3.03;2.72;;;16.50;54.90;;;;;;5050812;28;20202;-58
2022/01/10 00:42:59;;;;;;;4.30;2.90;;;16.50;54.90;;;;;;5051262;28;20266;-58
2022/01/10 00:45:26;;;;;;;3.00;2.70;;;16.40;54.90;;;;;;5050290;28;20208;-59
2022/01/10 00:47:53;;;;;;;2.33;2.13;;;16.40;54.80;;;;;;5051399;28;20256;-59
2022/01/10 00:50:19;;;;;;;4.03;2.72;;;16.40;54.90;;;;;;5051045;28;20183;-59
2022/01/10 00:52:45;;;;;;;3.28;2.55;;;16.40;54.80;;;;;;5050198;28;20655;-59
2022/01/10 00:55:10;;;;;;;3.00;2.70;;;16.40;54.90;;;;;;5051036;28;20175;-59
2022/01/10 00:57:36;;;;;;;3.85;2.78;;;16.40;54.90;;;;;;5051045;28;20261;-59
2022/01/10 01:00:03;;;;;;;3.28;2.55;;;16.40;54.90;;;;;;5050337;28;20249;-59
2022/01/10 01:02:32;;;;;;;2.92;2.35;;;16.40;54.90;;;;;;5050738;28;20571;-59
2022/01/10 01:05:03;;;;;;;3.67;2.60;;;16.40;54.90;;;;;;5050406;28;20182;-58
2022/01/10 01:07:29;;;;;;;3.30;2.40;;;16.30;54.80;;;;;;5050768;28;20229;-58
2022/01/10 01:13:04;;;;;;;4.75;2.85;;;16.30;54.80;;;;;;5030421;28;20231;-59
2022/01/10 01:15:30;;;;;;;3.78;2.63;;;16.30;54.90;;;;;;5050690;28;20183;-59
2022/01/10 01:25:54;;;;;;;3.63;3.00;;;16.20;54.80;;;;;;5050904;28;20190;-59
2022/01/10 01:28:19;;;;;;;3.58;2.72;;;16.30;54.90;;;;;;5049822;28;20168;-59
2022/01/10 01:30:45;;;;;;;3.22;2.70;;;16.30;54.80;;;;;;5050731;28;20176;-60
2022/01/10 01:33:13;;;;;;;3.88;2.90;;;16.20;54.80;;;;;;5050196;28;20203;-60
2022/01/10 01:35:39;;;;;;;4.20;3.20;;;16.20;54.80;;;;;;5050751;28;20187;-60
2022/01/10 01:38:05;;;;;;;3.58;2.63;;;16.20;54.80;;;;;;5050901;28;20225;-60
2022/01/10 01:40:32;;;;;;;3.63;2.40;;;16.20;54.80;;;;;;5049697;28;20213;-60
2022/01/10 01:42:58;;;;;;;5.65;2.80;;;16.20;54.80;;;;;;5050626;28;20277;-61
2022/01/10 01:45:46;;;;;;;3.05;2.58;;;16.20;54.80;;;;;;5050397;28;20630;-60
2022/01/10 01:48:12;;;;;;;3.03;2.40;;;16.20;54.80;;;;;;5050025;28;20225;-60
2022/01/10 01:50:37;;;;;;;3.17;2.38;;;16.20;54.80;;;;;;5050371;28;20176;-60
2022/01/10 01:53:03;;;;;;;5.57;2.53;;;16.20;54.70;;;;;;5050328;28;20223;-60
2022/01/10 01:55:29;;;;;;;4.13;2.70;;;16.10;54.70;;;;;;5051627;28;20289;-60
2022/01/10 01:57:55;;;;;;;3.05;2.53;;;16.10;54.80;;;;;;5054427;28;20259;-59
2022/01/10 02:00:22;;;;;;;2.75;2.35;;;16.10;54.70;;;;;;5054043;28;20201;-59
2022/01/10 02:02:49;;;;;;;3.95;2.97;;;16.10;54.70;;;;;;5053501;28;20179;-59
2022/01/10 02:05:14;;;;;;;4.47;3.03;;;16.10;54.70;;;;;;5054003;28;20175;-59
2022/01/10 02:07:40;;;;;;;3.65;2.50;;;16.10;55.40;;;;;;5053588;28;20272;-59
2022/01/10 02:10:06;;;;;;;2.55;2.22;;;16.10;54.80;;;;;;5053087;28;20177;-58
2022/01/10 02:12:31;;;;;;;2.45;2.25;;;16.10;54.80;;;;;;5052151;28;20279;-60
2022/01/10 02:14:57;;;;;;;3.28;2.53;;;16.10;54.80;;;;;;5054050;28;20171;-59
2022/01/10 02:17:33;;;;;;;2.90;2.47;;;16.00;54.70;;;;;;5052700;28;20638;-59
2022/01/10 02:19:59;;;;;;;4.18;2.63;;;16.00;54.70;;;;;;5053886;28;20176;-59
2022/01/10 02:22:24;;;;;;;3.28;2.83;;;16.00;54.70;;;;;;5052613;28;20265;-59
2022/01/10 02:24:50;;;;;;;2.92;2.60;;;16.00;54.70;;;;;;5053613;28;20262;-60
2022/01/10 02:27:15;;;;;;;3.55;2.38;;;16.00;54.70;;;;;;5053811;28;20602;-59
2022/01/10 02:29:41;;;;;;;3.05;2.13;;;16.00;54.70;;;;;;5052503;28;20567;-58
2022/01/10 02:32:07;;;;;;;3.05;2.58;;;16.00;54.70;;;;;;5053338;28;20211;-58
2022/01/10 02:34:32;;;;;;;3.85;2.72;;;16.00;54.70;;;;;;5053186;28;20182;-58
2022/01/10 02:37:00;;;;;;;3.13;2.58;;;16.00;54.80;;;;;;5052780;28;20262;-59
2022/01/10 02:39:25;;;;;;;3.42;2.65;;;16.00;54.80;;;;;;5053009;28;20183;-59
2022/01/10 02:41:51;;;;;;;2.78;2.53;;;15.90;54.70;;;;;;5053399;28;20178;-60
2022/01/10 02:44:17;;;;;;;3.10;2.50;;;15.90;54.70;;;;;;5052770;28;20664;-60
2022/01/10 02:46:43;;;;;;;4.78;2.65;;;15.90;54.70;;;;;;5052898;28;20210;-60
2022/01/10 02:49:16;;;;;;;2.53;2.33;;;15.90;54.70;;;;;;5053079;28;20180;-60
2022/01/10 02:51:42;;;;;;;3.05;2.42;;;15.90;54.70;;;;;;5050450;28;20262;-60
2022/01/10 02:54:07;;;;;;;3.13;2.63;;;15.90;54.70;;;;;;5053304;28;20293;-59
2022/01/10 02:56:34;;;;;;;3.20;2.40;;;15.90;54.70;;;;;;5052718;28;20171;-60
2022/01/10 02:59:00;;;;;;;2.85;2.20;;;15.90;54.70;;;;;;5052487;28;20194;-60
2022/01/10 03:01:25;;;;;;;2.75;2.40;;;15.80;54.60;;;;;;5052523;28;20182;-59
2022/01/10 03:03:51;;;;;;;3.63;2.60;;;15.90;54.70;;;;;;5052886;28;20201;-60
2022/01/10 03:06:16;;;;;;;4.22;2.63;;;15.80;54.60;;;;;;5050979;28;20175;-58
2022/01/10 03:08:42;;;;;;;2.60;2.40;;;15.80;54.60;;;;;;5052752;28;20175;-59
2022/01/10 03:11:07;;;;;;;3.17;2.40;;;15.80;54.60;;;;;;5053024;28;20171;-60
2022/01/10 03:13:33;;;;;;;3.25;2.58;;;15.80;54.60;;;;;;5051907;28;20297;-61
2022/01/10 03:15:58;;;;;;;3.70;2.38;;;15.80;54.70;;;;;;5052636;28;20601;-60
2022/01/10 03:18:24;;;;;;;2.90;2.67;;;15.80;54.60;;;;;;5052837;28;20187;-60
2022/01/10 03:20:49;;;;;;;2.72;2.53;;;15.80;54.70;;;;;;5051866;28;20179;-60
2022/01/10 03:23:15;;;;;;;3.33;2.60;;;15.80;54.60;;;;;;5052553;28;20214;-60
2022/01/10 03:25:40;;;;;;;2.85;2.25;;;15.80;54.60;;;;;;5051598;28;20167;-60
2022/01/10 03:28:13;;;;;;;3.67;2.35;;;15.80;54.60;;;;;;5052343;28;20179;-58
2022/01/10 03:30:39;;;;;;;3.33;2.38;;;15.80;54.60;;;;;;5051974;28;20282;-59
2022/01/10 03:33:04;;;;;;;2.92;2.22;;;15.80;54.60;;;;;;5051604;28;20294;-58
2022/01/10 03:35:30;;;;;;;3.03;2.70;;;15.80;54.70;;;;;;5051919;28;20179;-59
2022/01/10 03:37:55;;;;;;;2.88;2.35;;;15.70;54.60;;;;;;5052220;28;20174;-59
2022/01/10 03:40:21;;;;;;;3.83;2.65;;;15.70;54.60;;;;;;5051160;28;20171;-59
2022/01/10 03:42:46;;;;;;;3.20;2.45;;;15.70;54.60;;;;;;5052040;28;20622;-59
2022/01/10 03:45:12;;;;;;;2.58;2.33;;;15.70;54.60;;;;;;5052097;28;20224;-59
2022/01/10 03:47:37;;;;;;;3.38;2.60;;;15.70;54.60;;;;;;5051085;28;20183;-59
2022/01/10 03:50:04;;;;;;;2.88;2.28;;;15.70;54.60;;;;;;5051998;28;20252;-58
2022/01/10 03:52:33;;;;;;;2.83;2.63;;;15.70;54.60;;;;;;5051251;28;20697;-58
2022/01/10 03:54:58;;;;;;;2.95;2.47;;;15.70;54.60;;;;;;5051302;28;20179;-60
2022/01/10 03:57:24;;;;;;;4.13;2.85;;;15.70;54.60;;;;;;5051681;28;20171;-60
2022/01/10 03:59:49;;;;;;;3.10;2.78;;;15.60;54.50;;;;;;5051886;28;20485;-60
2022/01/10 04:02:15;;;;;;;2.90;2.55;;;15.60;54.60;;;;;;5051029;28;20595;-60
2022/01/10 04:04:40;;;;;;;3.13;2.47;;;15.60;54.60;;;;;;5051365;28;20667;-58
2022/01/10 04:07:06;;;;;;;3.20;2.75;;;15.60;54.70;;;;;;5051663;28;20194;-59
2022/01/10 04:09:32;;;;;;;3.67;2.53;;;15.60;54.60;;;;;;5050722;28;20175;-60
2022/01/10 04:11:57;;;;;;;3.33;2.53;;;15.60;54.60;;;;;;5051665;28;20178;-60
2022/01/10 04:14:23;;;;;;;2.63;2.42;;;15.60;54.60;;;;;;5051187;28;20222;-61
2022/01/10 04:16:48;;;;;;;3.00;2.30;;;15.60;54.60;;;;;;5050692;28;20723;-61
2022/01/10 04:19:14;;;;;;;2.53;2.25;;;15.50;54.50;;;;;;5051164;28;20274;-60
2022/01/10 04:21:39;;;;;;;3.85;2.63;;;15.60;54.70;;;;;;5051265;28;20183;-59
2022/01/10 04:24:05;;;;;;;4.15;3.10;;;15.50;54.60;;;;;;5050731;28;20229;-58
2022/01/10 04:26:30;;;;;;;2.55;2.35;;;15.50;54.60;;;;;;5050986;28;20175;-59
2022/01/10 04:28:56;;;;;;;2.67;2.30;;;15.50;54.60;;;;;;5050706;28;20603;-59
2022/01/10 04:31:21;;;;;;;3.38;2.72;;;15.50;54.60;;;;;;5051099;28;20222;-59
2022/01/10 04:33:47;;;;;;;2.65;2.25;;;15.50;54.60;;;;;;5051258;28;20213;-59
2022/01/10 04:36:12;;;;;;;2.95;2.47;;;15.50;54.60;;;;;;5050584;28;20182;-58
2022/01/10 04:38:42;;;;;;;2.92;2.45;;;15.50;54.50;;;;;;5051073;28;20837;-59
2022/01/10 04:41:07;;;;;;;3.00;2.53;;;15.50;54.60;;;;;;5050924;28;20179;-59
2022/01/10 04:43:34;;;;;;;3.08;2.35;;;15.50;54.60;;;;;;5050235;28;20178;-59
2022/01/10 04:46:00;;;;;;;2.70;2.10;;;15.50;54.70;;;;;;5051007;28;20210;-59
2022/01/10 04:48:26;;;;;;;3.38;2.83;;;15.50;54.70;;;;;;5050864;28;20183;-59
2022/01/10 04:53:35;;;;;;;3.33;2.83;;;15.40;54.60;;;;;;5050851;28;20241;-59
2022/01/10 04:56:01;;;;;;;2.55;2.35;;;15.40;54.60;;;;;;5051296;28;20198;-59
2022/01/10 04:58:26;;;;;;;2.30;2.08;;;15.40;54.60;;;;;;5050173;28;20224;-59
2022/01/10 05:00:53;;;;;;;4.13;2.50;;;15.40;54.70;;;;;;5051062;28;20167;-59
2022/01/10 05:03:19;;;;;;;3.03;2.42;;;15.40;54.70;;;;;;5050697;28;20474;-58
2022/01/10 05:05:45;;;;;;;3.33;3.03;;;15.40;54.70;;;;;;5050405;28;20229;-58
2022/01/10 05:08:10;;;;;;;4.00;2.67;;;15.40;54.70;;;;;;5051108;28;20644;-57
2022/01/10 05:10:36;;;;;;;3.17;2.40;;;15.40;54.60;;;;;;5050670;28;20171;-59
2022/01/10 05:13:01;;;;;;;2.92;2.60;;;15.40;54.60;;;;;;5050135;28;20249;-59
2022/01/10 05:15:27;;;;;;;2.80;2.53;;;15.30;54.70;;;;;;5050583;28;20225;-59
2022/01/10 05:17:52;;;;;;;3.63;2.53;;;15.40;54.70;;;;;;5050863;28;20591;-59
2022/01/10 05:20:18;;;;;;;3.88;2.25;;;15.40;54.70;;;;;;5050274;28;20199;-58
2022/01/10 05:22:43;;;;;;;2.42;2.22;;;15.30;54.70;;;;;;5050821;28;20266;-59
2022/01/10 05:25:09;;;;;;;3.70;3.00;;;15.30;54.70;;;;;;5050051;28;20186;-58
2022/01/10 05:27:34;;;;;;;3.50;2.53;;;15.30;54.70;;;;;;5050488;28;20172;-59
2022/01/10 05:30:00;;;;;;;3.58;2.50;;;15.40;54.70;;;;;;5051981;28;20170;-58
2022/01/10 05:32:25;;;;;;;3.45;2.70;;;15.30;54.70;;;;;;5053685;28;20532;-58
2022/01/10 05:34:51;;;;;;;2.85;2.47;;;15.30;54.70;;;;;;5054437;28;20174;-59
2022/01/10 05:37:17;;;;;;;2.97;2.60;;;15.30;54.60;;;;;;5054530;28;20171;-59
2022/01/10 05:39:42;;;;;;;3.30;2.30;;;15.30;54.60;;;;;;5053438;28;20240;-59
2022/01/10 05:42:07;;;;;;;2.97;2.45;;;15.30;54.80;;;;;;5054269;28;20202;-59
2022/01/10 05:44:33;;;;;;;3.30;2.78;;;15.30;54.80;;;;;;5054006;28;20622;-59
2022/01/10 05:47:01;;;;;;;3.22;2.58;;;15.30;54.80;;;;;;5053553;28;20183;-59
2022/01/10 05:49:32;;;;;;;3.78;2.42;;;15.30;54.80;;;;;;5053849;28;20539;-59
2022/01/10 05:52:00;;;;;;;2.92;2.60;;;15.30;54.80;;;;;;5054022;28;20531;-59
2022/01/10 05:54:26;;;;;;;2.72;2.50;;;15.30;54.80;;;;;;5053095;28;20633;-59
2022/01/10 05:56:52;;;;;;;3.63;2.85;;;15.30;54.80;;;;;;5054062;28;20179;-59
2022/01/10 05:59:18;;;;;;;5.45;3.05;;;15.20;54.80;;;;;;5053972;28;20175;-59
2022/01/10 06:01:44;;;;;;;2.97;2.45;;;15.30;54.90;;;;;;5053421;28;20258;-58
2022/01/10 06:04:09;;;;;;;3.40;2.75;;;15.20;54.90;;;;;;5053976;28;20172;-58
2022/01/10 06:06:35;;;;;;;3.85;2.78;;;15.30;54.90;;;;;;5053633;28;20194;-59
2022/01/10 06:09:00;;;;;;;3.22;2.90;;;15.30;54.80;;;;;;5053262;28;20540;-59
2022/01/10 06:11:26;;;;;;;3.22;2.25;;;15.30;54.70;;;;;;5053553;28;20186;-60
2022/01/10 06:13:51;;;;;;;2.72;2.47;;;15.40;54.60;;;;;;5053736;28;20249;-59
2022/01/10 06:16:17;;;;;;;4.32;2.15;;;15.50;54.80;;;;;;5053297;28;20167;-59
2022/01/10 06:18:42;;;;;;;3.55;2.80;;;15.60;54.80;;;;;;5053525;28;20171;-59
2022/01/10 06:21:10;;;;;;;3.50;2.70;;;15.80;54.70;;;;;;5053753;28;20176;-59
2022/01/10 06:23:36;;;;;;;2.70;2.15;;;15.90;54.50;;;;;;5052671;28;20535;-60
2022/01/10 06:26:01;;;;;;;3.03;2.03;;;16.00;54.20;;;;;;5053705;28;20210;-59
2022/01/10 06:28:27;;;;;;;2.58;2.38;;;16.20;54.00;;;;;;5052642;28;20281;-59
2022/01/10 06:30:52;;;;;;;3.85;2.13;;;16.30;53.80;;;;;;5053878;28;20244;-59
2022/01/10 06:33:21;;;;;;;2.90;2.40;;;16.40;53.60;;;;;;5053615;28;20246;-58
2022/01/10 06:35:46;;;;;;;2.90;2.30;;;16.50;53.50;;;;;;5052616;28;20813;-59
2022/01/10 06:38:12;;;;;;;2.58;2.13;;;16.60;53.40;;;;;;5053371;28;20179;-59
2022/01/10 06:40:37;;;;;;;2.65;2.40;;;16.60;53.30;;;;;;5052678;28;20172;-59
2022/01/10 06:43:04;;;;;;;2.58;2.38;;;16.70;53.30;;;;;;5052411;28;20301;-59
2022/01/10 06:45:29;;;;;;;2.95;2.20;;;16.70;53.20;;;;;;5053116;28;20232;-60
2022/01/10 06:47:55;;;;;;;2.92;2.20;;;16.70;53.20;;;;;;5053358;28;20175;-59
2022/01/10 06:50:21;;;;;;;2.28;2.08;;;16.80;53.20;;;;;;5052246;28;20171;-59
2022/01/10 06:52:46;;;;;;;2.17;1.98;;;16.80;53.20;;;;;;5053241;28;20292;-60
2022/01/10 06:55:12;;;;;;;3.80;2.40;;;16.80;53.10;;;;;;5053072;28;20229;-59
2022/01/10 06:57:37;;;;;;;2.47;2.28;;;16.80;53.10;;;;;;5052107;28;20224;-60
2022/01/10 07:00:04;;;;;;;2.85;2.40;;;16.80;53.00;;;;;;5053271;28;20167;-59
2022/01/10 07:02:29;;;;;;;2.30;2.10;;;16.80;53.10;;;;;;5052753;28;20187;-60
2022/01/10 07:04:55;;;;;;;2.65;2.45;;;16.70;53.20;;;;;;5052152;28;20172;-59
2022/01/10 07:07:21;;;;;;;2.42;2.03;;;16.70;53.20;;;;;;5052654;28;20629;-60
2022/01/10 07:09:46;;;;;;;2.38;2.17;;;16.80;53.30;;;;;;5052804;28;20640;-59
2022/01/10 07:12:12;;;;;;;2.63;2.30;;;16.80;53.30;;;;;;5051879;28;20491;-59
2022/01/10 07:14:38;;;;;;;2.60;2.40;;;16.80;53.30;;;;;;5052548;28;20175;-60
2022/01/10 07:17:04;;;;;;;2.40;2.10;;;16.90;53.30;;;;;;5052671;28;20645;-59
2022/01/10 07:19:30;;;;;;;2.50;2.30;;;16.90;53.20;;;;;;5051658;28;20265;-59
2022/01/10 07:21:55;;;;;;;2.47;2.28;;;17.00;53.20;;;;;;5052696;28;20171;-59
2022/01/10 07:24:20;;;;;;;3.33;2.55;;;17.00;53.00;;;;;;5052068;28;20521;-61
2022/01/10 07:26:46;;;;;;;3.00;2.30;;;17.10;53.00;;;;;;5051581;28;20240;-59
2022/01/10 07:29:12;;;;;;;2.50;2.30;;;17.10;53.00;;;;;;5052248;28;20183;-59
2022/01/10 07:31:38;;;;;;;2.38;2.15;;;17.20;52.90;;;;;;5051903;28;20171;-59
2022/01/10 07:34:03;;;;;;;2.28;2.10;;;17.30;52.80;;;;;;5051590;28;20248;-58
2022/01/10 07:36:29;;;;;;;2.00;1.90;;;17.40;52.70;;;;;;5051899;28;20174;-59
2022/01/10 07:38:54;;;;;;;2.63;2.03;;;17.60;52.40;;;;;;5051384;28;20232;-59
2022/01/10 07:41:20;;;;;;;2.80;2.35;;;17.80;52.00;;;;;;5051736;28;20250;-59
2022/01/10 07:43:45;;;;;;;2.55;1.85;;;17.90;51.80;;;;;;5052234;28;20540;-58
2022/01/10 07:46:11;;;;;;;2.40;1.73;;;17.90;51.90;;;;;;5051445;28;20179;-59
2022/01/10 07:48:38;;;;;;;2.55;2.35;;;17.90;52.00;;;;;;5051660;28;20586;-59
2022/01/10 07:51:03;;;;;;;2.20;2.10;;;17.80;51.90;;;;;;5051930;28;20286;-59
2022/01/10 07:53:29;;;;;;;2.42;2.20;;;17.80;52.00;;;;;;5050021;28;20317;-58
2022/01/10 07:55:55;;;;;;;2.28;1.98;;;17.70;52.10;;;;;;5051786;28;20183;-59
2022/01/10 07:58:20;;;;;;;2.47;2.28;;;17.70;52.30;;;;;;5051251;28;20171;-59
2022/01/10 08:00:46;;;;;;;3.40;2.10;;;17.80;52.40;;;;;;5051054;28;20171;-59
2022/01/10 08:03:11;;;;;;;3.28;2.17;;;17.80;52.30;;;;;;5052021;28;20175;-59
2022/01/10 08:05:37;;;;;;;2.35;2.15;;;17.90;52.10;;;;;;5051348;28;20179;-59
2022/01/10 08:08:02;;;;;;;2.10;2.00;;;18.00;51.90;;;;;;5050758;28;20501;-66
2022/01/10 08:10:28;;;;;;;2.30;2.10;;;18.10;52.00;;;;;;5051441;28;20175;-65
2022/01/10 08:12:53;;;;;;;2.60;2.40;;;18.10;52.10;;;;;;5051721;28;20682;-64
2022/01/10 08:15:20;;;;;;;3.80;2.00;;;18.30;52.20;;;;;;5051166;28;20179;-64
2022/01/10 08:17:45;;;;;;;2.30;2.10;;;18.40;51.90;;;;;;5051991;28;20175;-63
2022/01/10 08:20:11;;;;;;;2.63;2.35;;;18.30;52.00;;;;;;5054382;28;20550;-61
2022/01/10 08:22:37;;;;;;;3.63;2.47;;;18.30;52.50;;;;;;5056286;28;20172;-62
2022/01/10 08:25:02;;;;;;;2.83;2.47;;;18.40;52.60;;;;;;5067824;28;20223;-62
2022/01/10 08:27:28;;;;;;;3.13;2.80;;;18.50;52.60;;;;;;5069497;28;20174;-63
2022/01/10 08:29:53;;;;;;;3.78;2.95;;;18.50;52.70;;;;;;5050564;28;20178;-63
2022/01/10 08:32:19;;;;;;;3.05;2.53;;;18.50;52.50;;;;;;5051257;28;20218;-62
2022/01/10 08:34:44;;;;;;;3.20;2.70;;;18.50;52.90;;;;;;5051450;28;20182;-63
2022/01/10 08:37:10;;;;;;;4.03;2.83;;;18.50;52.80;;;;;;5061383;28;20224;-65
2022/01/10 08:39:35;;;;;;;3.15;2.40;;;18.50;52.70;;;;;;5071047;28;20178;-66
2022/01/10 08:42:01;;;;;;;5.55;3.00;;;18.40;53.00;;;;;;5064773;28;20163;-64
2022/01/10 08:44:27;;;;;;;3.45;2.40;;;18.50;52.90;;;;;;5050273;28;20190;-63
2022/01/10 08:46:52;;;;;;;4.68;3.20;;;18.50;52.90;;;;;;5051041;28;20171;-66
2022/01/10 08:49:18;;;;;;;4.10;2.95;;;18.50;53.00;;;;;;5049638;28;20183;-65
2022/01/10 08:51:44;;;;;;;3.88;3.17;;;18.50;53.00;;;;;;5051103;28;20255;-64
2022/01/10 08:54:12;;;;;;;5.15;2.88;;;18.40;53.00;;;;;;5061197;28;20206;-65
2022/01/10 08:56:39;;;;;;;4.55;3.22;;;18.50;53.00;;;;;;5069966;28;20177;-65
2022/01/10 08:59:05;;;;;;;3.22;2.85;;;18.40;53.00;;;;;;5071355;28;20285;-64
2022/01/10 09:01:31;;;;;;;4.15;2.70;;;18.50;53.00;;;;;;5070835;28;20202;-61
2022/01/10 09:03:57;;;;;;;4.75;2.47;;;18.50;53.00;;;;;;5071563;28;20178;-63
2022/01/10 09:06:22;;;;;;;7.55;2.85;;;18.60;52.90;;;;;;5074525;28;20170;-64
2022/01/10 09:08:48;;;;;;;3.72;2.72;;;18.60;52.80;;;;;;5074930;28;20279;-64
2022/01/10 09:11:14;;;;;;;3.85;2.97;;;18.60;52.90;;;;;;5074516;28;20174;-62
2022/01/10 09:13:39;;;;;;;4.57;2.90;;;18.60;52.90;;;;;;5074441;28;20224;-64
2022/01/10 09:16:07;;;;;;;5.68;3.35;;;18.70;52.80;;;;;;5074795;28;20204;-64
2022/01/10 09:18:35;;;;;;;3.03;2.70;;;18.70;52.80;;;;;;5074057;28;20200;-63
2022/01/10 09:21:01;;;;;;;2.92;2.63;;;18.70;52.70;;;;;;5074949;28;20266;-63
2022/01/10 09:23:26;;;;;;;5.00;2.90;;;18.70;52.80;;;;;;5072872;28;20278;-63
2022/01/10 09:25:52;;;;;;;3.85;3.38;;;18.60;52.80;;;;;;5074184;28;20178;-63
2022/01/10 09:28:18;;;;;;;3.33;3.03;;;18.50;53.00;;;;;;5064517;28;20179;-64
2022/01/10 09:30:43;;;;;;;4.25;3.05;;;18.40;53.20;;;;;;5054634;28;20541;-65
2022/01/10 09:33:09;;;;;;;3.92;3.33;;;18.40;53.30;;;;;;5053956;28;20214;-63
2022/01/10 09:35:35;;;;;;;2.92;2.72;;;18.30;53.40;;;;;;5054338;28;20174;-64
2022/01/10 09:38:00;;;;;;;3.38;2.55;;;18.30;53.60;;;;;;5054548;28;20175;-65
2022/01/10 09:40:26;;;;;;;3.13;2.90;;;18.30;53.70;;;;;;5053684;28;20246;-65
2022/01/10 09:42:51;;;;;;;4.68;3.33;;;18.20;53.70;;;;;;5054667;28;20583;-65
2022/01/10 09:45:17;;;;;;;4.10;2.75;;;18.30;53.70;;;;;;5054413;28;20196;-66
2022/01/10 09:47:42;;;;;;;4.05;3.00;;;18.30;53.80;;;;;;5053508;28;20580;-64
2022/01/10 09:50:08;;;;;;;4.10;2.92;;;18.30;53.80;;;;;;5054436;28;20205;-64
2022/01/10 09:52:35;;;;;;;3.75;3.15;;;18.20;53.70;;;;;;5053207;28;20626;-64
2022/01/10 09:55:00;;;;;;;4.20;2.75;;;18.30;53.80;;;;;;5054627;28;20175;-65
2022/01/10 09:57:26;;;;;;;4.22;3.70;;;18.20;53.70;;;;;;5053722;28;20602;-66
2022/01/10 09:59:51;;;;;;;4.93;2.80;;;18.30;53.60;;;;;;5053540;28;20194;-67
2022/01/10 10:02:17;;;;;;;3.35;2.90;;;18.30;53.80;;;;;;5054194;28;20203;-67
2022/01/10 10:04:43;;;;;;;4.78;3.05;;;18.30;53.90;;;;;;5053791;28;20179;-67
2022/01/10 10:07:09;;;;;;;2.90;2.33;;;18.30;54.40;;;;;;5053358;28;20661;-67
2022/01/10 10:09:35;;;;;;;4.57;2.80;;;18.40;53.90;;;;;;5053822;28;20660;-66
2022/01/10 10:12:03;;;;;;;4.53;2.92;;;18.40;53.90;;;;;;5053959;28;20614;-65
2022/01/10 10:14:29;;;;;;;4.15;2.60;;;18.40;53.90;;;;;;5052805;28;20598;-62
2022/01/10 10:16:56;;;;;;;3.17;2.67;;;18.40;53.80;;;;;;5053139;28;20262;-63
2022/01/10 10:19:26;;;;;;;5.55;2.97;;;18.40;53.70;;;;;;5053498;28;20171;-65
2022/01/10 10:21:52;;;;;;;4.32;2.78;;;18.40;53.80;;;;;;5053011;28;20172;-63
2022/01/10 10:24:18;;;;;;;7.15;3.35;;;18.40;53.80;;;;;;5054088;28;20167;-63
2022/01/10 10:26:43;;;;;;;4.60;2.90;;;18.40;54.00;;;;;;5053681;28;20257;-63
2022/01/10 10:29:17;;;;;;;3.45;2.75;;;18.40;54.10;;;;;;5070321;28;20207;-63
2022/01/10 10:31:53;;;;;;;4.35;2.60;;;18.40;54.00;;;;;;5073461;28;20603;-64
2022/01/10 10:34:22;;;;;;;3.60;2.70;;;18.40;54.00;;;;;;5073390;28;20210;-64
2022/01/10 10:37:02;;;;;;;4.45;2.97;;;18.40;54.10;;;;;;5072581;28;20182;-62
2022/01/10 10:39:28;;;;;;;3.08;2.75;;;18.30;53.90;;;;;;5072824;28;20612;-65
2022/01/10 10:41:55;;;;;;;4.10;2.65;;;18.40;53.90;;;;;;5072680;28;20261;-65
2022/01/10 10:44:21;;;;;;;4.05;2.90;;;18.40;53.90;;;;;;5073091;28;20258;-65
2022/01/10 10:46:47;;;;;;;4.40;3.08;;;18.40;53.90;;;;;;5073465;28;20227;-66
2022/01/10 10:49:14;;;;;;;4.70;3.17;;;18.40;54.10;;;;;;5071388;28;20253;-68
2022/01/10 10:51:39;;;;;;;5.00;2.90;;;18.30;54.10;;;;;;5071971;28;20190;-67
2022/01/10 10:54:08;;;;;;;5.53;3.55;;;18.30;54.10;;;;;;5073312;28;20613;-64
2022/01/10 10:56:40;;;;;;;3.65;3.17;;;18.30;54.00;;;;;;5057936;28;20211;-65
2022/01/10 10:59:07;;;;;;;4.53;3.10;;;18.30;54.10;;;;;;5050800;28;20197;-66
2022/01/10 11:01:33;;;;;;;4.10;2.97;;;18.40;54.10;;;;;;5051000;28;20712;-67
2022/01/10 11:03:58;;;;;;;5.15;2.97;;;18.40;54.00;;;;;;5051555;28;20575;-66
2022/01/10 11:06:26;;;;;;;5.30;3.20;;;18.50;53.90;;;;;;5052379;28;20233;-66
2022/01/10 11:08:51;;;;;;;3.17;2.85;;;18.50;54.00;;;;;;5051277;28;20262;-65
2022/01/10 11:11:21;;;;;;;4.28;3.03;;;18.50;54.10;;;;;;5049904;28;20178;-65
2022/01/10 11:13:46;;;;;;;4.07;3.10;;;18.50;54.00;;;;;;5050854;28;20650;-64
2022/01/10 11:16:12;;;;;;;3.80;2.80;;;18.40;54.00;;;;;;5051107;28;20168;-66
2022/01/10 11:18:38;;;;;;;3.30;2.75;;;18.40;54.00;;;;;;5050115;28;20175;-65
2022/01/10 11:21:03;;;;;;;3.47;2.95;;;18.40;54.20;;;;;;5052280;28;20172;-65
2022/01/10 11:23:29;;;;;;;4.47;3.20;;;18.30;54.10;;;;;;5051845;28;20179;-65
2022/01/10 11:25:56;;;;;;;3.33;3.03;;;18.30;54.30;;;;;;5051367;28;20175;-65
2022/01/10 11:28:24;;;;;;;5.70;3.10;;;18.20;54.60;;;;;;5050134;28;20195;-65
2022/01/10 11:30:58;;;;;;;3.45;2.80;;;18.10;54.60;;;;;;5051864;28;20171;-66
2022/01/10 11:33:32;;;;;;;3.30;2.90;;;18.10;54.70;;;;;;5049559;28;20210;-66
2022/01/10 11:35:59;;;;;;;4.53;3.10;;;18.20;54.70;;;;;;5052965;28;20163;-68
2022/01/10 11:38:45;;;;;;;4.07;2.72;;;18.20;54.50;;;;;;5050668;28;20225;-68
2022/01/10 11:41:21;;;;;;;3.85;3.20;;;18.30;54.50;;;;;;5051980;28;20183;-68
2022/01/10 11:43:57;;;;;;;4.05;3.10;;;18.20;54.30;;;;;;5052016;28;20258;-68
2022/01/10 11:46:26;;;;;;;3.63;3.33;;;18.20;54.30;;;;;;5051075;28;20594;-67
2022/01/10 11:49:08;;;;;;;7.30;3.00;;;18.20;54.50;;;;;;5068805;28;20545;-67
2022/01/10 11:51:38;;;;;;;6.18;3.33;;;18.10;54.40;;;;;;5068273;28;20178;-67
2022/01/10 11:54:16;;;;;;;5.47;3.58;;;18.10;54.50;;;;;;5067839;28;20167;-68
2022/01/10 11:56:43;;;;;;;2.97;2.78;;;18.10;54.50;;;;;;5068338;28;20255;-67
2022/01/10 11:59:19;;;;;;;5.22;3.42;;;18.10;54.50;;;;;;5067971;28;20174;-68
2022/01/10 12:01:49;;;;;;;4.43;3.20;;;18.10;54.50;;;;;;5068435;28;20755;-68
2022/01/10 12:04:14;;;;;;;4.22;3.45;;;18.10;54.50;;;;;;5068591;28;20747;-68
2022/01/10 12:06:46;;;;;;;3.70;3.28;;;18.10;54.40;;;;;;5067340;28;20232;-67
2022/01/10 12:09:11;;;;;;;4.47;3.28;;;18.10;54.40;;;;;;5068431;28;20182;-66
2022/01/10 12:11:39;;;;;;;3.78;3.20;;;18.10;54.50;;;;;;5067950;28;20633;-66
2022/01/10 12:14:06;;;;;;;3.28;3.08;;;18.00;54.50;;;;;;5067518;28;20257;-67
2022/01/10 12:16:32;;;;;;;4.93;3.42;;;18.00;54.60;;;;;;5067831;28;20178;-66
2022/01/10 12:18:57;;;;;;;6.32;3.50;;;18.00;54.60;;;;;;5068583;28;20171;-67
2022/01/10 12:21:23;;;;;;;3.35;2.88;;;18.00;54.60;;;;;;5067163;28;20232;-66
2022/01/10 12:23:48;;;;;;;3.97;3.47;;;17.80;54.60;;;;;;5068143;28;20174;-62
2022/01/10 12:26:14;;;;;;;3.03;2.72;;;17.90;54.70;;;;;;5068126;28;20536;-63
2022/01/10 12:28:39;;;;;;;4.95;3.17;;;17.90;54.70;;;;;;5080339;28;20213;-63
2022/01/10 12:31:05;;;;;;;5.70;3.42;;;18.00;54.70;;;;;;5088206;28;20205;-65
2022/01/10 12:33:31;;;;;;;6.20;3.63;;;18.00;54.80;;;;;;5074539;28;20504;-64
2022/01/10 12:35:56;;;;;;;3.78;3.10;;;18.00;54.70;;;;;;5066620;28;20179;-65
2022/01/10 12:38:23;;;;;;;5.90;3.30;;;18.00;54.70;;;;;;5067143;28;20266;-64
2022/01/10 12:40:49;;;;;;;4.07;3.17;;;18.00;54.90;;;;;;5067735;28;20660;-65
2022/01/10 12:43:15;;;;;;;4.28;3.10;;;18.00;54.90;;;;;;5066978;28;20293;-64
2022/01/10 12:45:40;;;;;;;3.42;3.13;;;18.00;55.00;;;;;;5067396;28;20269;-64
2022/01/10 12:48:08;;;;;;;4.53;3.55;;;18.00;55.00;;;;;;5066076;28;20234;-64
2022/01/10 12:50:34;;;;;;;6.95;3.47;;;18.00;55.00;;;;;;5066753;28;20167;-62
2022/01/10 12:52:59;;;;;;;3.70;3.22;;;18.00;55.00;;;;;;5067638;28;20178;-63
2022/01/10 12:55:25;;;;;;;3.25;2.92;;;18.00;55.00;;;;;;5066236;28;20171;-64
2022/01/10 12:57:56;;;;;;;5.30;2.85;;;18.00;55.00;;;;;;5067207;28;20560;-62